Watertown, Ohio
Current Conditions -  °F | °C
As of 6:53 AM on Thursday 27 Nov 2014 (Local Time) from KPKB Reporting Station
Few Clouds Few Clouds  
Wind Chill: 29°   Ceiling: Unl
Heat Index: 33°   Visibility: 9mi
Dew Point: 27°   Wind: 5mph
Humidity: 78%   Direction: 320°NW
Pressure: 30.09"   Gusts: NA
Location:  39.47°N, 81.63°W
Report Text: KPKB 271153Z 32004KT 9SM FEW039 FEW120 01/M03 A3009 RMK AO2 SLP196 70003 T00061028 10011 20006 53015
Loading
Personal Weather Stations






























Interactive Weather Map New forecast layout! Learn more

10-Day Weather Forecast

Advertisements
Track Severe Weather on mobile